Latest Coastal Weather Observations for Bougainville Reef

IDQ60701

Issued at 10:52 am EST Monday 2 March 2015 (issued every 10 minutes, with the page automatically refreshed every 10 minutes)

About coastal observations | Map of coastal stations | Coastal observations for QLD | Marine services | Other Formats
Station Details ID: 200840 Name: BOUGAINVILLE REEF Lat: -15.49 Lon: 147.12 Height: 0.0 m
Data from the previous 72 hours. | See also: Recent months for locations in Queensland
Date/Time
EST
Temp

°C
Wind Pressure Rain
since 9am
mm
Weather Cloud Vis
km
Sea
Height
m
Swell
Dir
 
Speed
knots
Gust
knots
hPa Trend Height
m
Period
s
Dir
02/10:30am 28.5 ESE 8 9 1008.9 - - - - - - - - -
02/10:00am 28.5 SE 8 9 1009.1 - - - - - - - - -
02/09:30am 28.6 ESE 8 10 1009.0 - - - - - - - - -
02/09:00am 28.6 SE 8 10 1008.9 - - - - - - - - -
02/08:30am 28.5 SE 7 9 1008.9 - - - - - - - - -
02/08:00am 28.7 ESE 6 8 1008.6 - - - - - - - - -
02/07:30am 28.8 ESE 5 6 1008.4 - - - - - - - - -
02/07:00am 28.7 E 6 7 1008.0 - - - - - - - - -
02/06:30am 28.3 E 7 10 1007.8 - - - - - - - - -
02/06:00am 28.3 SE 8 11 1007.5 - - - - - - - - -
02/05:30am 28.1 ESE 8 9 1007.4 - - - - - - - - -
02/05:00am 28.1 SE 7 9 1006.9 - - - - - - - - -
02/04:30am 28.1 SE 7 8 1006.8 - - - - - - - - -
02/04:00am 28.1 SE 9 10 1006.6 - - - - - - - - -
02/03:30am 28.0 SE 8 9 1006.5 - - - - - - - - -
02/03:00am 28.0 SE 7 8 1006.7 - - - - - - - - -
02/02:30am 28.0 SE 6 8 1006.9 - - - - - - - - -
02/02:00am 28.3 ESE 7 8 1007.6 - - - - - - - - -
02/01:30am 28.2 SE 7 9 1007.8 - - - - - - - - -
02/01:00am 28.3 SE 6 8 1008.3 - - - - - - - - -
02/12:30am 28.3 SE 7 8 1008.4 - - - - - - - - -
02/12:00am 28.4 ESE 6 7 1008.7 - - - - - - - - -
 
Date/Time
EST
Temp

°C
Wind Pressure Rain
since 9am
mm
Weather Cloud Vis
km
Sea
Height
m
Swell
Dir
 
Speed
knots
Gust
knots
hPa Trend Height
m
Period
s
Dir
01/11:30pm 28.3 ESE 6 8 1008.7 - - - - - - - - -
01/11:00pm 28.4 E 7 9 1009.2 - - - - - - - - -
01/10:00pm 28.6 ESE 7 8 1009.2 - - - - - - - - -
01/09:30pm 28.5 E 7 8 1009.0 - - - - - - - - -
01/09:00pm 28.5 ESE 7 8 1008.6 - - - - - - - - -
01/08:30pm 28.5 ESE 7 9 1008.5 - - - - - - - - -
01/08:00pm 28.5 SE 5 7 1008.1 - - - - - - - - -
01/07:30pm 28.5 SE 6 8 1007.9 - - - - - - - - -
01/07:00pm 28.5 SE 6 7 1007.7 - - - - - - - - -
01/06:30pm 28.6 SSE 5 8 1007.6 - - - - - - - - -
01/06:00pm 28.6 SE 6 6 1007.1 - - - - - - - - -
01/05:30pm 28.7 SSE 4 6 1006.9 - - - - - - - - -
01/05:00pm 28.6 SE 5 7 1006.6 - - - - - - - - -
01/04:30pm 28.9 SE 1 4 1006.7 - - - - - - - - -
01/04:00pm 28.7 SSE 1 5 1006.8 - - - - - - - - -
01/03:30pm 28.9 SE 2 4 1006.7 - - - - - - - - -
01/03:00pm 28.8 CALM 0 0 1006.8 - - - - - - - - -
01/02:30pm 28.4 ENE 3 5 1007.0 - - - - - - - - -
01/02:00pm 28.6 ENE 4 6 1007.3 - - - - - - - - -
01/01:30pm 28.6 NE 5 7 1007.4 - - - - - - - - -
01/01:00pm 28.4 E 5 5 1007.9 - - - - - - - - -
01/12:30pm 28.3 E 6 7 1008.1 - - - - - - - - -
01/12:00pm 28.3 E 5 7 1008.7 - - - - - - - - -
01/11:30am 28.2 E 5 7 1008.8 - - - - - - - - -
01/11:00am 28.1 ESE 7 8 1008.8 - - - - - - - - -
01/10:30am 28.3 E 7 9 1008.7 - - - - - - - - -
01/10:00am 28.3 E 8 9 1008.8 - - - - - - - - -
01/09:30am 28.5 E 7 9 1008.8 - - - - - - - - -
01/09:00am 28.2 ESE 7 8 1009.0 - - - - - - - - -
01/08:30am 28.2 E 7 10 1008.7 - - - - - - - - -
01/08:00am 28.4 E 7 9 1008.2 - - - - - - - - -
01/07:30am 28.3 ESE 7 8 1008.1 - - - - - - - - -
01/07:00am 28.0 SE 8 10 1007.7 - - - - - - - - -
01/06:30am 27.9 SE 7 8 1007.5 - - - - - - - - -
01/06:00am 27.9 ESE 7 9 1007.1 - - - - - - - - -
01/05:30am 27.8 ESE 8 9 1006.9 - - - - - - - - -
01/05:00am 27.8 ESE 8 10 1006.8 - - - - - - - - -
01/04:30am 28.0 ESE 7 9 1006.8 - - - - - - - - -
01/04:00am 28.0 E 8 9 1006.4 - - - - - - - - -
01/03:30am 28.1 E 8 11 1006.3 - - - - - - - - -
01/03:00am 28.1 E 8 9 1006.4 - - - - - - - - -
01/02:30am 28.1 E 9 11 1006.5 - - - - - - - - -
01/02:00am 28.2 E 9 11 1007.2 - - - - - - - - -
01/01:30am 28.7 ESE 9 11 1007.4 - - - - - - - - -
01/01:00am 28.5 ESE 7 10 1008.1 - - - - - - - - -
01/12:30am 28.4 E 9 11 1008.3 - - - - - - - - -
01/12:00am 28.6 E 9 11 1008.7 - - - - - - - - -
 
Date/Time
EST
Temp

°C
Wind Pressure Rain
since 9am
mm
Weather Cloud Vis
km
Sea
Height
m
Swell
Dir
 
Speed
knots
Gust
knots
hPa Trend Height
m
Period
s
Dir
28/11:30pm 28.7 E 9 10 1008.7 - - - - - - - - -
28/11:00pm 28.6 ESE 9 11 1009.0 - - - - - - - - -
28/10:30pm 28.6 ESE 9 13 1008.8 - - - - - - - - -
28/10:00pm 28.6 ESE 11 12 1008.5 - - - - - - - - -
28/09:30pm 28.8 ESE 10 12 1008.5 - - - - - - - - -
28/09:00pm 28.7 ESE 10 12 1007.8 - - - - - - - - -
28/08:30pm 28.7 ESE 10 13 1007.7 - - - - - - - - -
28/08:00pm 28.7 ESE 9 12 1007.4 - - - - - - - - -
28/07:30pm 28.8 SE 9 11 1007.3 - - - - - - - - -
28/07:00pm 28.8 SE 8 9 1006.9 - - - - - - - - -
28/06:30pm 28.8 SE 8 10 1006.8 - - - - - - - - -
28/06:00pm 28.9 SE 8 9 1006.5 - - - - - - - - -
28/05:30pm 28.8 SE 6 7 1006.3 - - - - - - - - -
28/05:00pm 28.8 SSE 6 7 1006.1 - - - - - - - - -
28/04:30pm 28.8 SSE 4 6 1006.1 - - - - - - - - -
28/04:00pm 28.8 SSE 4 6 1006.1 - - - - - - - - -
28/03:30pm 28.6 SE 5 7 1006.2 - - - - - - - - -
28/03:00pm 28.6 SE 5 5 1006.1 - - - - - - - - -
28/02:30pm 28.8 SE 2 5 1006.3 - - - - - - - - -
28/02:00pm 29.1 SE 1 4 1006.6 - - - - - - - - -
28/01:30pm 29.0 CALM 0 0 1006.8 - - - - - - - - -
28/01:00pm 28.8 ESE 3 4 1007.3 - - - - - - - - -
28/12:30pm 29.0 SSE 1 3 1007.7 - - - - - - - - -
28/12:00pm 29.9 CALM 0 0 1008.2 - - - - - - - - -
28/11:30am 29.2 CALM 0 0 1008.3 - - - - - - - - -
28/11:00am 30.1 SSW 3 5 1008.4 - - - - - - - - -
28/10:30am 30.5 SSE 2 5 1008.4 - - - - - - - - -
28/10:00am 30.9 CALM 0 3 1008.5 - - - - - - - - -
28/09:30am 31.5 CALM 0 1 1008.5 - - - - - - - - -
28/09:00am 30.5 CALM 0 0 1008.3 - - - - - - - - -
28/08:30am 31.6 CALM 0 0 1008.0 - - - - - - - - -
28/08:00am 31.0 S 1 3 1007.5 - - - - - - - - -
28/07:30am 29.2 CALM 0 0 1007.3 - - - - - - - - -
28/07:00am 27.9 CALM 0 0 1007.0 - - - - - - - - -
28/06:30am 27.8 CALM 0 0 1006.7 - - - - - - - - -
28/06:00am 27.5 CALM 0 2 1006.3 - - - - - - - - -
28/05:30am 27.5 CALM 0 3 1006.1 - - - - - - - - -
28/05:00am 27.6 NE 5 6 1005.7 - - - - - - - - -
28/04:30am 27.6 CALM 0 1 1005.9 - - - - - - - - -
28/04:00am 27.8 SSE 3 4 1005.7 - - - - - - - - -
28/03:30am 27.8 SE 3 5 1005.7 - - - - - - - - -
28/03:00am 27.9 S 3 4 1006.0 - - - - - - - - -
28/02:30am 27.9 SSE 4 5 1006.4 - - - - - - - - -
28/02:00am 28.0 SE 4 4 1007.0 - - - - - - - - -
28/01:30am 28.1 E 5 6 1007.0 - - - - - - - - -
28/01:00am 28.2 E 6 7 1007.3 - - - - - - - - -
28/12:30am 28.2 E 5 6 1007.6 - - - - - - - - -
28/12:00am 28.2 SE 4 4 1008.4 - - - - - - - - -
 
Date/Time
EST
Temp

°C
Wind Pressure Rain
since 9am
mm
Weather Cloud Vis
km
Sea
Height
m
Swell
Dir
 
Speed
knots
Gust
knots
hPa Trend Height
m
Period
s
Dir
27/11:30pm 28.3 ESE 4 6 1008.5 - - - - - - - - -
27/11:00pm 28.3 E 6 7 1008.3 - - - - - - - - -
27/10:30pm 28.4 ESE 6 7 1008.2 - - - - - - - - -
27/10:00pm 28.5 E 6 8 1008.3 - - - - - - - - -
27/09:30pm 28.4 E 7 7 1008.1 - - - - - - - - -
27/09:00pm 28.5 ESE 5 6 1007.9 - - - - - - - - -
27/08:30pm 28.5 SE 4 6 1007.8 - - - - - - - - -
27/08:00pm 28.5 SE 5 8 1007.2 - - - - - - - - -
27/07:30pm 28.6 SE 6 8 1007.1 - - - - - - - - -
27/07:00pm 28.6 SE 6 7 1006.6 - - - - - - - - -
27/06:30pm 28.6 SSE 6 7 1006.2 - - - - - - - - -
27/06:00pm 28.8 SSE 6 7 1005.6 - - - - - - - - -
27/05:30pm 28.9 SE 7 8 1005.5 - - - - - - - - -
27/05:00pm 28.7 S 7 8 1005.5 - - - - - - - - -
27/04:30pm 29.0 S 8 11 1005.2 - - - - - - - - -
27/04:00pm 29.0 S 7 9 1005.3 - - - - - - - - -
27/03:30pm 29.2 S 5 7 1005.4 - - - - - - - - -
27/03:00pm 29.2 SSW 4 7 1005.8 - - - - - - - - -
27/02:30pm 29.1 SSW 4 6 1005.9 - - - - - - - - -
27/02:00pm 28.7 SSW 5 7 1006.2 - - - - - - - - -
27/01:30pm 28.7 S 5 8 1006.4 - - - - - - - - -
27/01:00pm 28.6 SSW 5 7 1006.7 - - - - - - - - -
27/12:30pm 28.6 SSW 6 7 1007.2 - - - - - - - - -
27/12:00pm 28.6 SSW 6 7 1007.5 - - - - - - - - -
27/11:30am 28.7 SSW 5 7 1007.8 - - - - - - - - -
27/11:00am 28.7 SSW 5 7 1007.8 - - - - - - - - -

Other Formats:

Comma delimited format used in spreadsheet applications
http://www.bom.gov.au/fwo/IDQ60701/IDQ60701.95288.axf

JavaScript Object Notation format (JSON) in row-major order
http://www.bom.gov.au/fwo/IDQ60701/IDQ60701.95288.json